createdAt,value
2023-02-12T00:01:43.510Z,1.84
2023-02-12T00:04:11.135Z,1.80
2023-02-12T00:06:39.442Z,1.69
2023-02-12T00:09:07.072Z,1.67
2023-02-12T00:11:34.711Z,1.72
2023-02-12T00:14:03.093Z,1.76
2023-02-12T00:16:30.818Z,1.74
2023-02-12T00:19:00.839Z,1.70
2023-02-12T00:21:28.892Z,1.75
2023-02-12T00:23:56.559Z,1.71
2023-02-12T00:26:24.827Z,1.71
2023-02-12T00:28:52.814Z,1.64
2023-02-12T00:31:23.027Z,1.64
2023-02-12T00:33:50.795Z,1.56
2023-02-12T00:36:21.164Z,1.55
2023-02-12T00:38:49.526Z,1.53
2023-02-12T00:41:17.180Z,1.53
2023-02-12T00:43:44.871Z,1.52
2023-02-12T00:46:12.732Z,1.53
2023-02-12T00:48:40.413Z,1.54
2023-02-12T00:51:08.209Z,1.57
2023-02-12T00:53:37.481Z,1.48
2023-02-12T00:56:05.734Z,1.58
2023-02-12T00:58:33.512Z,1.58
2023-02-12T01:01:01.271Z,1.62
2023-02-12T01:03:28.996Z,1.69
2023-02-12T01:05:57.347Z,1.71
2023-02-12T01:08:25.348Z,1.75
2023-02-12T01:10:58.934Z,1.78
2023-02-12T01:13:27.281Z,1.81
2023-02-12T01:16:09.198Z,1.85
2023-02-12T01:18:37.984Z,1.86
2023-02-12T01:21:10.768Z,1.90
2023-02-12T01:23:38.355Z,1.94
2023-02-12T01:26:10.665Z,1.96
2023-02-12T01:28:38.358Z,1.99
2023-02-12T01:31:10.159Z,1.98
2023-02-12T01:33:37.833Z,1.99
2023-02-12T01:36:05.724Z,1.98
2023-02-12T01:38:33.400Z,1.99
2023-02-12T01:41:04.816Z,2.00
2023-02-12T01:43:34.667Z,2.03
2023-02-12T01:46:02.860Z,2.04
2023-02-12T01:48:35.376Z,2.04
2023-02-12T01:51:03.827Z,2.03
2023-02-12T01:53:36.766Z,2.02
2023-02-12T01:56:04.939Z,2.00
2023-02-12T01:58:37.428Z,1.94
2023-02-12T02:01:07.483Z,1.92
2023-02-12T02:03:35.571Z,1.93
2023-02-12T02:06:07.897Z,1.96
2023-02-12T02:08:35.499Z,1.98
2023-02-12T02:11:23.118Z,2.01
2023-02-12T02:14:09.670Z,1.98
2023-02-12T02:16:38.169Z,1.95
2023-02-12T02:19:10.541Z,1.94
2023-02-12T02:22:05.716Z,1.93
2023-02-12T02:24:55.147Z,1.94
2023-02-12T02:27:29.545Z,1.94
2023-02-12T02:30:30.109Z,1.92
2023-02-12T02:33:03.945Z,1.79
2023-02-12T02:35:36.509Z,1.82
2023-02-12T02:38:10.455Z,1.89
2023-02-12T02:40:42.913Z,1.92
2023-02-12T02:43:12.415Z,1.93
2023-02-12T02:45:45.007Z,1.94
2023-02-12T02:48:16.269Z,1.97
2023-02-12T02:50:48.066Z,2.00
2023-02-12T02:53:18.596Z,2.02
2023-02-12T02:55:50.042Z,2.04
2023-02-12T02:58:19.441Z,2.05
2023-02-12T03:00:50.513Z,2.06
2023-02-12T03:03:22.120Z,2.03
2023-02-12T03:05:51.922Z,2.01
2023-02-12T03:08:24.201Z,2.02
2023-02-12T03:10:54.421Z,2.04
2023-02-12T03:13:24.766Z,1.98
2023-02-12T03:15:56.825Z,1.98
2023-02-12T03:18:27.390Z,1.97
2023-02-12T03:20:58.852Z,1.94
2023-02-12T03:23:28.231Z,1.98
2023-02-12T03:25:59.247Z,2.01
2023-02-12T03:28:29.607Z,2.04
2023-02-12T03:31:04.833Z,2.06
2023-02-12T03:33:38.146Z,2.07
2023-02-12T03:36:10.906Z,2.01
2023-02-12T03:38:42.215Z,2.00
2023-02-12T03:41:12.415Z,2.00
2023-02-12T03:43:50.184Z,2.05
2023-02-12T03:46:22.465Z,2.08
2023-02-12T03:48:58.152Z,2.13
2023-02-12T03:51:30.226Z,2.17
2023-02-12T03:53:57.655Z,2.17
2023-02-12T03:56:27.050Z,2.16
2023-02-12T03:58:54.630Z,2.18
2023-02-12T04:01:23.738Z,2.19
2023-02-12T04:03:51.547Z,2.21
2023-02-12T04:06:23.727Z,2.19
2023-02-12T04:08:51.386Z,2.16
2023-02-12T04:11:27.490Z,2.13
2023-02-12T04:14:07.675Z,2.06
2023-02-12T04:16:42.866Z,2.03
2023-02-12T04:19:11.883Z,1.97
2023-02-12T04:21:45.666Z,1.98
2023-02-12T04:24:18.521Z,2.01
2023-02-12T04:26:50.833Z,2.03
2023-02-12T04:29:23.049Z,1.97
2023-02-12T04:31:55.407Z,1.88
2023-02-12T04:34:28.597Z,1.89
2023-02-12T04:37:00.574Z,1.93
2023-02-12T04:39:30.383Z,1.98
2023-02-12T04:41:59.815Z,2.02
2023-02-12T04:44:28.874Z,1.98
2023-02-12T04:46:57.966Z,1.96
2023-02-12T04:49:26.066Z,1.94
2023-02-12T04:51:53.822Z,1.89
2023-02-12T04:54:22.424Z,1.81
2023-02-12T04:56:50.436Z,1.85
2023-02-12T04:59:18.375Z,1.90
2023-02-12T05:01:46.315Z,1.90
2023-02-12T05:04:17.194Z,1.89
2023-02-12T05:06:45.650Z,1.88
2023-02-12T05:09:15.896Z,1.92
2023-02-12T05:11:43.805Z,1.93
2023-02-12T05:14:11.497Z,1.96
2023-02-12T05:16:39.193Z,1.97
2023-02-12T05:19:09.390Z,1.96
2023-02-12T05:21:38.634Z,1.99
2023-02-12T05:24:06.973Z,2.00
2023-02-12T05:26:34.983Z,2.01
2023-02-12T05:29:03.323Z,2.00
2023-02-12T05:31:31.090Z,1.93
2023-02-12T05:33:58.778Z,1.91
2023-02-12T05:36:26.353Z,1.79
2023-02-12T05:38:58.930Z,1.64
2023-02-12T05:41:26.672Z,1.63
2023-02-12T05:43:54.481Z,1.58
2023-02-12T05:46:22.821Z,1.49
2023-02-12T05:48:50.432Z,1.47
2023-02-12T05:51:19.992Z,1.50
2023-02-12T05:53:47.643Z,1.51
2023-02-12T05:56:18.398Z,1.54
2023-02-12T05:58:48.167Z,1.55
2023-02-12T06:01:18.550Z,1.59
2023-02-12T06:03:46.295Z,1.60
2023-02-12T06:06:14.255Z,1.53
2023-02-12T06:08:42.151Z,1.48
2023-02-12T06:11:12.113Z,1.47
2023-02-12T06:13:41.144Z,1.43
2023-02-12T06:16:09.001Z,1.42
2023-02-12T06:18:37.014Z,1.41
2023-02-12T06:21:04.851Z,1.40
2023-02-12T06:23:32.723Z,1.25
2023-02-12T06:26:00.317Z,1.18
2023-02-12T06:28:27.983Z,1.09
2023-02-12T06:30:57.054Z,0.93
2023-02-12T06:33:24.739Z,0.82
2023-02-12T06:35:52.305Z,0.83
2023-02-12T06:38:19.908Z,0.85
2023-02-12T06:40:47.507Z,0.75
2023-02-12T06:43:15.162Z,0.73
2023-02-12T06:45:42.761Z,0.71
2023-02-12T06:48:11.650Z,0.70
2023-02-12T06:50:39.243Z,0.66
2023-02-12T06:53:06.815Z,0.61
2023-02-12T06:55:35.606Z,0.59
2023-02-12T06:58:03.197Z,0.59
2023-02-12T07:00:30.917Z,0.60
2023-02-12T07:02:58.597Z,0.61
2023-02-12T07:05:27.623Z,0.65
2023-02-12T07:07:55.188Z,0.63
2023-02-12T07:10:22.787Z,0.65
2023-02-12T07:12:50.355Z,0.73
2023-02-12T07:15:18.181Z,0.81
2023-02-12T07:17:45.761Z,0.85
2023-02-12T07:20:14.109Z,0.89
2023-02-12T07:22:43.030Z,1.02
2023-02-12T07:25:10.578Z,1.14
2023-02-12T07:27:38.614Z,1.18
2023-02-12T07:30:07.495Z,1.24
2023-02-12T07:32:35.388Z,1.34
2023-02-12T07:35:03.022Z,1.44
2023-02-12T07:37:30.633Z,1.48
2023-02-12T07:39:59.595Z,1.57
2023-02-12T07:42:27.222Z,1.65
2023-02-12T07:44:54.828Z,1.70
2023-02-12T07:47:22.421Z,1.77
2023-02-12T07:49:49.985Z,1.82
2023-02-12T07:52:17.566Z,1.87
2023-02-12T07:54:45.217Z,1.91
2023-02-12T07:57:14.228Z,1.97
2023-02-12T07:59:41.849Z,2.04
2023-02-12T08:02:10.638Z,2.13
2023-02-12T08:04:38.428Z,2.29
2023-02-12T08:07:06.056Z,2.42
2023-02-12T08:09:33.674Z,2.56
2023-02-12T08:12:01.317Z,2.72
2023-02-12T08:14:30.839Z,2.85
2023-02-12T08:16:58.414Z,2.97
2023-02-12T08:19:26.865Z,3.12
2023-02-12T08:21:55.705Z,3.25
2023-02-12T08:24:23.760Z,3.38
2023-02-12T08:26:51.715Z,3.44
2023-02-12T08:29:21.405Z,3.51
2023-02-12T08:31:51.321Z,3.62
2023-02-12T08:34:20.263Z,3.74
2023-02-12T08:36:49.344Z,3.83
2023-02-12T08:39:17.220Z,3.94
2023-02-12T08:41:45.122Z,4.07
2023-02-12T08:44:13.401Z,4.22
2023-02-12T08:46:44.164Z,4.38
2023-02-12T08:49:16.225Z,4.54
2023-02-12T08:51:44.312Z,4.68
2023-02-12T08:54:13.965Z,4.86
2023-02-12T08:56:42.242Z,5.03
2023-02-12T08:59:10.339Z,5.14
2023-02-12T09:01:40.968Z,5.25
2023-02-12T09:04:09.534Z,5.27
2023-02-12T09:06:38.539Z,5.33
2023-02-12T09:09:07.224Z,5.51
2023-02-12T09:11:35.286Z,5.72
2023-02-12T09:14:05.091Z,5.83
2023-02-12T09:16:35.187Z,5.96
2023-02-12T09:19:03.095Z,6.09
2023-02-12T09:21:30.766Z,6.22
2023-02-12T09:23:59.799Z,6.35
2023-02-12T09:26:27.423Z,6.47
2023-02-12T09:28:55.398Z,6.66
2023-02-12T09:31:26.550Z,6.77
2023-02-12T09:33:55.419Z,6.65
2023-02-12T09:36:23.276Z,6.41
2023-02-12T09:38:51.119Z,6.62
2023-02-12T09:41:42.606Z,6.68
2023-02-12T09:44:13.217Z,6.95
2023-02-12T09:46:44.685Z,6.94
2023-02-12T09:49:19.092Z,7.20
2023-02-12T09:51:51.556Z,7.35
2023-02-12T09:54:21.768Z,7.49
2023-02-12T09:56:53.395Z,7.59
2023-02-12T09:59:30.054Z,7.56
2023-02-12T10:01:58.881Z,7.75
2023-02-12T10:04:27.489Z,7.90
2023-02-12T10:07:03.248Z,7.91
2023-02-12T10:09:40.525Z,8.06
2023-02-12T10:12:14.292Z,8.20
2023-02-12T10:15:14.467Z,8.31
2023-02-12T10:17:43.675Z,8.44
2023-02-12T10:20:34.625Z,8.43
2023-02-12T10:23:12.295Z,8.53
2023-02-12T10:25:47.351Z,8.62
2023-02-12T10:28:19.565Z,8.77
2023-02-12T10:30:49.565Z,8.62
2023-02-12T10:33:18.930Z,8.57
2023-02-12T10:35:50.434Z,8.63
2023-02-12T10:38:21.126Z,8.76
2023-02-12T10:40:50.303Z,8.92
2023-02-12T10:43:19.221Z,8.93
2023-02-12T10:45:46.801Z,9.00
2023-02-12T10:48:18.380Z,9.09
2023-02-12T10:50:53.025Z,9.18
2023-02-12T10:53:23.309Z,9.12
2023-02-12T10:55:51.101Z,8.92
2023-02-12T10:58:22.813Z,8.87
2023-02-12T11:00:57.834Z,9.06
2023-02-12T11:03:30.249Z,9.33
2023-02-12T11:05:58.158Z,9.50
2023-02-12T11:08:31.852Z,9.72
2023-02-12T11:11:06.134Z,9.86
2023-02-12T11:13:35.383Z,10.00
2023-02-12T11:16:03.472Z,9.51
2023-02-12T11:18:33.244Z,9.62
2023-02-12T11:21:02.556Z,9.59
2023-02-12T11:23:32.032Z,9.73
2023-02-12T11:26:01.447Z,9.87
2023-02-12T11:28:29.796Z,9.70
2023-02-12T11:31:01.213Z,9.91
2023-02-12T11:33:31.880Z,9.90
2023-02-12T11:36:03.009Z,9.66
2023-02-12T11:38:34.434Z,9.72
2023-02-12T11:41:07.408Z,9.62
2023-02-12T11:43:38.415Z,9.89
2023-02-12T11:46:09.260Z,9.76
2023-02-12T11:48:39.049Z,9.78
2023-02-12T11:51:09.304Z,9.90
2023-02-12T11:53:40.119Z,9.72
2023-02-12T11:56:10.014Z,9.44
2023-02-12T11:58:37.700Z,9.41
2023-02-12T12:01:13.589Z,9.66
2023-02-12T12:03:46.460Z,9.51
2023-02-12T12:06:29.261Z,9.74
2023-02-12T12:09:01.660Z,9.92
2023-02-12T12:11:35.730Z,9.95
2023-02-12T12:14:08.340Z,10.07
2023-02-12T12:16:58.438Z,9.81
2023-02-12T12:19:47.419Z,9.73
2023-02-12T12:22:20.206Z,9.65
2023-02-12T12:24:53.963Z,9.60
2023-02-12T12:27:47.616Z,9.46
2023-02-12T12:30:21.314Z,9.82
2023-02-12T12:32:53.467Z,10.08
2023-02-12T12:35:22.601Z,10.13
2023-02-12T12:37:55.990Z,10.02
2023-02-12T12:40:39.373Z,9.95
2023-02-12T12:43:14.272Z,10.08
2023-02-12T12:45:57.827Z,9.67
2023-02-12T12:48:36.277Z,9.99
2023-02-12T12:51:13.714Z,10.18
2023-02-12T12:53:55.502Z,9.89
2023-02-12T12:56:34.432Z,9.83
2023-02-12T12:59:30.379Z,10.07
2023-02-12T13:02:16.471Z,10.06
2023-02-12T13:04:56.462Z,10.22
2023-02-12T13:07:39.346Z,10.11
2023-02-12T13:10:18.296Z,9.98
2023-02-12T13:12:53.023Z,10.08
2023-02-12T13:15:28.219Z,10.20
2023-02-12T13:17:59.960Z,10.42
2023-02-12T13:20:36.705Z,10.36
2023-02-12T13:23:08.004Z,10.43
2023-02-12T13:25:38.847Z,10.44
2023-02-12T13:28:07.305Z,10.34
2023-02-12T13:30:38.460Z,10.42
2023-02-12T13:33:10.756Z,10.55
2023-02-12T13:35:42.688Z,10.59
2023-02-12T13:38:16.207Z,10.54
2023-02-12T13:40:43.987Z,10.16
2023-02-12T13:43:21.681Z,10.20
2023-02-12T13:45:52.839Z,10.11
2023-02-12T13:48:37.866Z,9.82
2023-02-12T13:51:13.188Z,9.57
2023-02-12T13:53:48.689Z,9.71
2023-02-12T13:56:29.481Z,9.84
2023-02-12T13:59:00.331Z,10.00
2023-02-12T14:01:46.514Z,10.08
2023-02-12T14:04:26.115Z,10.22
2023-02-12T14:07:00.959Z,10.33
2023-02-12T14:09:33.926Z,10.24
2023-02-12T14:12:02.252Z,10.28
2023-02-12T14:14:33.032Z,10.25
2023-02-12T14:17:34.247Z,10.11
2023-02-12T14:20:08.900Z,10.17
2023-02-12T14:23:21.638Z,10.24
2023-02-12T14:25:58.168Z,10.15
2023-02-12T14:28:29.925Z,10.17
2023-02-12T14:31:41.738Z,10.11
2023-02-12T14:34:50.069Z,10.11
2023-02-12T14:37:19.696Z,10.07
2023-02-12T14:39:48.675Z,9.96
2023-02-12T14:42:44.804Z,9.82
2023-02-12T14:45:31.029Z,9.60
2023-02-12T14:47:58.822Z,9.68
2023-02-12T14:50:31.711Z,9.59
2023-02-12T14:53:09.415Z,9.52
2023-02-12T14:55:39.288Z,9.35
2023-02-12T14:58:17.718Z,9.26
2023-02-12T15:00:47.122Z,9.18
2023-02-12T15:03:19.887Z,9.09
2023-02-12T15:05:51.344Z,9.00
2023-02-12T15:08:27.622Z,8.88
2023-02-12T15:11:00.597Z,8.81
2023-02-12T15:13:30.644Z,8.73
2023-02-12T15:16:02.781Z,8.71
2023-02-12T15:18:33.045Z,8.56
2023-02-12T15:21:02.092Z,8.49
2023-02-12T15:23:39.575Z,8.35
2023-02-12T15:26:15.650Z,8.35
2023-02-12T15:28:43.603Z,8.28
2023-02-12T15:31:11.533Z,8.27
2023-02-12T15:33:42.975Z,8.22
2023-02-12T15:36:12.169Z,8.01
2023-02-12T15:38:42.466Z,7.78
2023-02-12T15:41:26.537Z,7.81
2023-02-12T15:43:54.453Z,7.78
2023-02-12T15:46:22.165Z,7.73
2023-02-12T15:48:49.775Z,7.63
2023-02-12T15:51:21.394Z,7.60
2023-02-12T15:53:49.176Z,7.47
2023-02-12T15:56:19.728Z,7.35
2023-02-12T15:58:49.533Z,7.31
2023-02-12T16:01:19.228Z,7.08
2023-02-12T16:03:51.301Z,6.94
2023-02-12T16:06:19.879Z,6.95
2023-02-12T16:08:50.181Z,6.93
2023-02-12T16:11:21.774Z,6.95
2023-02-12T16:13:51.500Z,6.96
2023-02-12T16:16:23.640Z,6.92
2023-02-12T16:19:17.369Z,6.82
2023-02-12T16:21:46.047Z,6.71
2023-02-12T16:24:23.960Z,6.66
2023-02-12T16:26:53.222Z,6.61
2023-02-12T16:29:21.043Z,6.62
2023-02-12T16:32:00.011Z,6.58
2023-02-12T16:34:36.030Z,6.54
2023-02-12T16:37:04.674Z,6.49
2023-02-12T16:40:18.637Z,6.46
2023-02-12T16:43:04.022Z,6.41
2023-02-12T16:45:39.104Z,6.37
2023-02-12T16:48:23.325Z,6.30
2023-02-12T16:50:53.059Z,6.23
2023-02-12T16:53:27.506Z,6.08
2023-02-12T16:55:55.552Z,5.98
2023-02-12T16:58:25.761Z,5.96
2023-02-12T17:00:54.107Z,5.91
2023-02-12T17:03:21.701Z,5.92
2023-02-12T17:05:51.803Z,5.86
2023-02-12T17:08:21.800Z,5.74
2023-02-12T17:10:49.798Z,5.66
2023-02-12T17:13:17.867Z,5.55
2023-02-12T17:15:51.114Z,5.50
2023-02-12T17:18:18.716Z,5.38
2023-02-12T17:20:48.969Z,5.40
2023-02-12T17:23:16.806Z,5.32
2023-02-12T17:25:44.388Z,5.21
2023-02-12T17:28:12.477Z,5.19
2023-02-12T17:30:40.225Z,5.14
2023-02-12T17:33:09.418Z,5.10
2023-02-12T17:35:38.811Z,5.08
2023-02-12T17:38:06.472Z,5.08
2023-02-12T17:40:36.074Z,4.98
2023-02-12T17:43:03.709Z,4.94
2023-02-12T17:45:31.394Z,4.81
2023-02-12T17:47:59.280Z,4.76
2023-02-12T17:50:28.241Z,4.69
2023-02-12T17:52:55.829Z,4.64
2023-02-12T17:55:23.457Z,4.63
2023-02-12T17:57:55.314Z,4.58
2023-02-12T18:00:23.594Z,4.55
2023-02-12T18:02:51.329Z,4.57
2023-02-12T18:05:19.373Z,4.58
2023-02-12T18:07:48.324Z,4.57
2023-02-12T18:10:15.971Z,4.49
2023-02-12T18:12:43.610Z,4.38
2023-02-12T18:15:11.376Z,4.39
2023-02-12T18:17:38.957Z,4.38
2023-02-12T18:20:08.123Z,4.37
2023-02-12T18:22:35.711Z,4.35
2023-02-12T18:25:04.897Z,4.27
2023-02-12T18:27:32.488Z,4.20
2023-02-12T18:30:00.121Z,4.13
2023-02-12T18:32:27.818Z,4.02
2023-02-12T18:34:55.420Z,3.95
2023-02-12T18:37:23.039Z,3.85
2023-02-12T18:39:50.652Z,3.83
2023-02-12T18:42:19.610Z,3.85
2023-02-12T18:44:47.647Z,3.80
2023-02-12T18:47:15.316Z,3.73
2023-02-12T18:49:42.928Z,3.68
2023-02-12T18:52:10.562Z,3.66
2023-02-12T18:54:38.187Z,3.58
2023-02-12T18:57:05.801Z,3.54
2023-02-12T18:59:34.729Z,3.55
2023-02-12T19:02:03.995Z,3.50
2023-02-12T19:04:31.760Z,3.47
2023-02-12T19:06:59.390Z,3.44
2023-02-12T19:09:27.496Z,3.43
2023-02-12T19:11:56.520Z,3.40
2023-02-12T19:14:25.583Z,3.38
2023-02-12T19:16:54.643Z,3.38
2023-02-12T19:19:22.634Z,3.34
2023-02-12T19:21:50.722Z,3.25
2023-02-12T19:24:19.036Z,3.24
2023-02-12T19:26:46.951Z,3.19
2023-02-12T19:29:14.900Z,3.12
2023-02-12T19:31:45.312Z,3.08
2023-02-12T19:34:16.970Z,3.02
2023-02-12T19:36:45.146Z,2.96
2023-02-12T19:39:15.517Z,3.00
2023-02-12T19:41:43.361Z,2.96
2023-02-12T19:44:13.232Z,2.96
2023-02-12T19:46:41.404Z,2.88
2023-02-12T19:49:11.427Z,2.87
2023-02-12T19:51:41.688Z,2.84
2023-02-12T19:54:10.295Z,2.82
2023-02-12T19:56:38.288Z,2.82
2023-02-12T19:59:07.160Z,2.78
2023-02-12T20:01:35.481Z,2.74
2023-02-12T20:04:03.692Z,2.74
2023-02-12T20:06:32.754Z,2.73
2023-02-12T20:09:02.028Z,2.73
2023-02-12T20:11:31.246Z,2.66
2023-02-12T20:13:59.154Z,2.63
2023-02-12T20:16:31.178Z,2.65
2023-02-12T20:19:02.091Z,2.65
2023-02-12T20:21:29.804Z,2.63
2023-02-12T20:23:57.819Z,2.58
2023-02-12T20:26:26.997Z,2.58
2023-02-12T20:28:54.855Z,2.57
2023-02-12T20:31:23.943Z,2.56
2023-02-12T20:33:55.391Z,2.46
2023-02-12T20:36:23.693Z,2.41
2023-02-12T20:38:53.224Z,2.39
2023-02-12T20:41:20.941Z,2.36
2023-02-12T20:43:49.965Z,2.30
2023-02-12T20:46:19.879Z,2.26
2023-02-12T20:48:48.044Z,2.23
2023-02-12T20:51:17.611Z,2.27
2023-02-12T20:53:45.703Z,2.26
2023-02-12T20:56:15.584Z,2.27
2023-02-12T20:58:44.880Z,2.25
2023-02-12T21:01:17.093Z,2.22
2023-02-12T21:03:44.670Z,2.23
2023-02-12T21:06:12.672Z,2.26
2023-02-12T21:08:41.585Z,2.23
2023-02-12T21:11:14.579Z,2.25
2023-02-12T21:13:50.341Z,2.25
2023-02-12T21:16:29.531Z,2.26
2023-02-12T21:18:57.390Z,2.27
2023-02-12T21:21:27.018Z,2.28
2023-02-12T21:23:56.888Z,2.25
2023-02-12T21:26:26.013Z,2.24
2023-02-12T21:28:54.555Z,2.28
2023-02-12T21:31:24.303Z,2.30
2023-02-12T21:33:54.660Z,2.31
2023-02-12T21:36:24.712Z,2.35
2023-02-12T21:38:53.044Z,2.36
2023-02-12T21:41:23.300Z,2.37
2023-02-12T21:43:52.495Z,2.35
2023-02-12T21:46:21.038Z,2.35
2023-02-12T21:48:48.806Z,2.37
2023-02-12T21:51:20.245Z,2.33
2023-02-12T21:53:48.030Z,2.34
2023-02-12T21:56:16.306Z,2.38
2023-02-12T21:58:44.173Z,2.38
2023-02-12T22:01:14.136Z,2.40
2023-02-12T22:03:43.962Z,2.43
2023-02-12T22:06:12.851Z,2.44
2023-02-12T22:08:41.750Z,2.44
2023-02-12T22:11:11.702Z,2.41
2023-02-12T22:13:39.808Z,2.41
2023-02-12T22:16:11.053Z,2.43
2023-02-12T22:18:39.028Z,2.41
2023-02-12T22:21:09.687Z,2.42
2023-02-12T22:23:38.778Z,2.43
2023-02-12T22:26:09.293Z,2.43
2023-02-12T22:28:40.982Z,2.43
2023-02-12T22:31:09.238Z,2.40
2023-02-12T22:33:36.886Z,2.39
2023-02-12T22:36:05.473Z,2.35
2023-02-12T22:38:34.329Z,2.29
2023-02-12T22:41:02.179Z,2.28
2023-02-12T22:43:31.693Z,2.29
2023-02-12T22:45:59.764Z,2.31
2023-02-12T22:48:29.191Z,2.32
2023-02-12T22:50:58.226Z,2.34
2023-02-12T22:53:26.575Z,2.35
2023-02-12T22:55:54.369Z,2.30
2023-02-12T22:58:21.980Z,2.31
2023-02-12T23:00:50.938Z,2.33
2023-02-12T23:03:18.504Z,2.35
2023-02-12T23:05:46.104Z,2.35
2023-02-12T23:08:13.664Z,2.35
2023-02-12T23:10:41.295Z,2.35
2023-02-12T23:13:10.447Z,2.37
2023-02-12T23:15:38.116Z,2.38
2023-02-12T23:18:07.085Z,2.33
2023-02-12T23:20:34.674Z,2.32
2023-02-12T23:23:02.257Z,2.29
2023-02-12T23:25:29.882Z,2.29
2023-02-12T23:27:57.467Z,2.32
2023-02-12T23:30:25.116Z,2.30
2023-02-12T23:32:52.691Z,2.31
2023-02-12T23:35:21.639Z,2.31
2023-02-12T23:37:49.243Z,2.28
2023-02-12T23:40:17.133Z,2.29
2023-02-12T23:42:46.496Z,2.29
2023-02-12T23:45:14.504Z,2.26
2023-02-12T23:47:42.572Z,2.26
2023-02-12T23:50:10.904Z,2.23
2023-02-12T23:52:39.849Z,2.22
2023-02-12T23:55:07.915Z,2.19
2023-02-12T23:57:35.762Z,2.10
